sensor_id;sensor_type;location;lat;lon;timestamp;temperature;humidity
7000;DHT22;3540;53.242;10.408;2022-10-16T00:00:54;13.50;99.90
7000;DHT22;3540;53.242;10.408;2022-10-16T00:03:19;13.50;99.90
7000;DHT22;3540;53.242;10.408;2022-10-16T00:05:45;13.50;99.90
7000;DHT22;3540;53.242;10.408;2022-10-16T00:08:11;13.40;99.90
7000;DHT22;3540;53.242;10.408;2022-10-16T00:10:37;13.50;99.90
7000;DHT22;3540;53.242;10.408;2022-10-16T00:13:04;13.40;99.90
7000;DHT22;3540;53.242;10.408;2022-10-16T00:15:32;13.40;99.90
7000;DHT22;3540;53.242;10.408;2022-10-16T00:17:58;13.40;99.90
7000;DHT22;3540;53.242;10.408;2022-10-16T00:20:23;13.40;99.90
7000;DHT22;3540;53.242;10.408;2022-10-16T00:22:49;13.30;99.90
7000;DHT22;3540;53.242;10.408;2022-10-16T00:25:14;13.30;99.90
7000;DHT22;3540;53.242;10.408;2022-10-16T00:27:40;13.30;99.90
7000;DHT22;3540;53.242;10.408;2022-10-16T00:30:06;13.20;99.90
7000;DHT22;3540;53.242;10.408;2022-10-16T00:32:33;13.20;99.90
7000;DHT22;3540;53.242;10.408;2022-10-16T00:34:59;13.20;99.90
7000;DHT22;3540;53.242;10.408;2022-10-16T00:37:24;13.20;99.90
7000;DHT22;3540;53.242;10.408;2022-10-16T00:39:50;13.10;99.90
7000;DHT22;3540;53.242;10.408;2022-10-16T00:42:17;13.10;99.90
7000;DHT22;3540;53.242;10.408;2022-10-16T00:47:10;13.00;99.90
7000;DHT22;3540;53.242;10.408;2022-10-16T00:49:38;13.00;99.90
7000;DHT22;3540;53.242;10.408;2022-10-16T00:52:04;13.00;99.90
7000;DHT22;3540;53.242;10.408;2022-10-16T00:54:32;13.00;99.90
7000;DHT22;3540;53.242;10.408;2022-10-16T00:57:02;13.00;99.90
7000;DHT22;3540;53.242;10.408;2022-10-16T00:59:34;12.90;99.90
7000;DHT22;3540;53.242;10.408;2022-10-16T01:02:02;12.90;99.90
7000;DHT22;3540;53.242;10.408;2022-10-16T01:04:32;12.90;99.90
7000;DHT22;3540;53.242;10.408;2022-10-16T01:12:33;12.80;99.90
7000;DHT22;3540;53.242;10.408;2022-10-16T01:18:18;12.70;99.90
7000;DHT22;3540;53.242;10.408;2022-10-16T01:20:59;12.70;99.90
7000;DHT22;3540;53.242;10.408;2022-10-16T01:29:15;12.60;99.90
7000;DHT22;3540;53.242;10.408;2022-10-16T01:31:46;12.60;99.90
7000;DHT22;3540;53.242;10.408;2022-10-16T01:34:20;12.60;99.90
7000;DHT22;3540;53.242;10.408;2022-10-16T01:36:53;12.50;99.90
7000;DHT22;3540;53.242;10.408;2022-10-16T01:39:24;12.50;99.90
7000;DHT22;3540;53.242;10.408;2022-10-16T01:42:19;12.50;99.90
7000;DHT22;3540;53.242;10.408;2022-10-16T01:44:47;12.50;99.90
7000;DHT22;3540;53.242;10.408;2022-10-16T01:47:14;12.50;99.90
7000;DHT22;3540;53.242;10.408;2022-10-16T01:49:41;12.40;99.90
7000;DHT22;3540;53.242;10.408;2022-10-16T01:52:15;12.40;99.90
7000;DHT22;3540;53.242;10.408;2022-10-16T01:54:43;12.40;99.90
7000;DHT22;3540;53.242;10.408;2022-10-16T01:57:12;12.40;99.90
7000;DHT22;3540;53.242;10.408;2022-10-16T01:59:45;12.30;99.90
7000;DHT22;3540;53.242;10.408;2022-10-16T02:02:13;12.30;99.90
7000;DHT22;3540;53.242;10.408;2022-10-16T02:04:46;12.30;99.90
7000;DHT22;3540;53.242;10.408;2022-10-16T02:07:13;12.30;99.90
7000;DHT22;3540;53.242;10.408;2022-10-16T02:09:39;12.30;99.90
7000;DHT22;3540;53.242;10.408;2022-10-16T02:12:13;12.30;99.90
7000;DHT22;3540;53.242;10.408;2022-10-16T02:14:41;12.30;99.90
7000;DHT22;3540;53.242;10.408;2022-10-16T02:17:14;12.30;99.90
7000;DHT22;3540;53.242;10.408;2022-10-16T02:19:41;12.30;99.90
7000;DHT22;3540;53.242;10.408;2022-10-16T02:22:09;12.30;99.90
7000;DHT22;3540;53.242;10.408;2022-10-16T02:24:39;12.40;99.90
7000;DHT22;3540;53.242;10.408;2022-10-16T02:27:33;12.40;99.90
7000;DHT22;3540;53.242;10.408;2022-10-16T02:33:05;12.50;99.90
7000;DHT22;3540;53.242;10.408;2022-10-16T02:35:32;12.50;99.90
7000;DHT22;3540;53.242;10.408;2022-10-16T02:37:59;12.50;99.90
7000;DHT22;3540;53.242;10.408;2022-10-16T02:40:25;12.50;99.90
7000;DHT22;3540;53.242;10.408;2022-10-16T02:42:53;12.50;99.90
7000;DHT22;3540;53.242;10.408;2022-10-16T02:45:20;12.50;99.90
7000;DHT22;3540;53.242;10.408;2022-10-16T02:47:46;12.50;99.90
7000;DHT22;3540;53.242;10.408;2022-10-16T02:50:12;12.50;99.90
7000;DHT22;3540;53.242;10.408;2022-10-16T02:52:37;12.50;99.90
7000;DHT22;3540;53.242;10.408;2022-10-16T02:55:03;12.50;99.90
7000;DHT22;3540;53.242;10.408;2022-10-16T02:57:29;12.50;99.90
7000;DHT22;3540;53.242;10.408;2022-10-16T02:59:54;12.50;99.90
7000;DHT22;3540;53.242;10.408;2022-10-16T03:02:20;12.40;99.90
7000;DHT22;3540;53.242;10.408;2022-10-16T03:04:45;12.40;99.90
7000;DHT22;3540;53.242;10.408;2022-10-16T03:07:11;12.40;99.90
7000;DHT22;3540;53.242;10.408;2022-10-16T03:09:37;12.40;99.90
7000;DHT22;3540;53.242;10.408;2022-10-16T03:12:02;12.40;99.90
7000;DHT22;3540;53.242;10.408;2022-10-16T03:14:28;12.30;99.90
7000;DHT22;3540;53.242;10.408;2022-10-16T03:16:53;12.30;99.90
7000;DHT22;3540;53.242;10.408;2022-10-16T03:19:19;12.30;99.90
7000;DHT22;3540;53.242;10.408;2022-10-16T03:21:45;12.40;99.90
7000;DHT22;3540;53.242;10.408;2022-10-16T03:24:11;12.40;99.90
7000;DHT22;3540;53.242;10.408;2022-10-16T03:26:36;12.40;99.90
7000;DHT22;3540;53.242;10.408;2022-10-16T03:29:02;12.40;99.90
7000;DHT22;3540;53.242;10.408;2022-10-16T03:31:29;12.40;99.90
7000;DHT22;3540;53.242;10.408;2022-10-16T03:33:54;12.40;99.90
7000;DHT22;3540;53.242;10.408;2022-10-16T03:36:20;12.30;99.90
7000;DHT22;3540;53.242;10.408;2022-10-16T03:38:45;12.30;99.90
7000;DHT22;3540;53.242;10.408;2022-10-16T03:41:11;12.20;99.90
7000;DHT22;3540;53.242;10.408;2022-10-16T03:43:37;12.20;99.90
7000;DHT22;3540;53.242;10.408;2022-10-16T03:46:02;12.20;99.90
7000;DHT22;3540;53.242;10.408;2022-10-16T03:48:29;12.20;99.90
7000;DHT22;3540;53.242;10.408;2022-10-16T03:50:54;12.20;99.90
7000;DHT22;3540;53.242;10.408;2022-10-16T03:53:20;12.20;99.90
7000;DHT22;3540;53.242;10.408;2022-10-16T03:55:45;12.20;99.90
7000;DHT22;3540;53.242;10.408;2022-10-16T03:58:11;12.20;99.90
7000;DHT22;3540;53.242;10.408;2022-10-16T04:00:46;12.20;99.90
7000;DHT22;3540;53.242;10.408;2022-10-16T04:03:15;12.20;99.90
7000;DHT22;3540;53.242;10.408;2022-10-16T04:05:41;12.20;99.90
7000;DHT22;3540;53.242;10.408;2022-10-16T04:08:06;12.20;99.90
7000;DHT22;3540;53.242;10.408;2022-10-16T04:10:32;12.20;99.90
7000;DHT22;3540;53.242;10.408;2022-10-16T04:12:57;12.10;99.90
7000;DHT22;3540;53.242;10.408;2022-10-16T04:15:23;12.10;99.90
7000;DHT22;3540;53.242;10.408;2022-10-16T04:17:49;12.00;99.90
7000;DHT22;3540;53.242;10.408;2022-10-16T04:20:15;12.00;99.90
7000;DHT22;3540;53.242;10.408;2022-10-16T04:22:41;11.90;99.90
7000;DHT22;3540;53.242;10.408;2022-10-16T04:25:07;11.80;99.90
7000;DHT22;3540;53.242;10.408;2022-10-16T04:27:33;11.80;99.90
7000;DHT22;3540;53.242;10.408;2022-10-16T04:29:59;11.70;99.90
7000;DHT22;3540;53.242;10.408;2022-10-16T04:32:25;11.60;99.90
7000;DHT22;3540;53.242;10.408;2022-10-16T04:34:51;11.60;99.90
7000;DHT22;3540;53.242;10.408;2022-10-16T04:37:16;11.60;99.90
7000;DHT22;3540;53.242;10.408;2022-10-16T04:39:42;11.60;99.90
7000;DHT22;3540;53.242;10.408;2022-10-16T04:42:08;11.60;99.90
7000;DHT22;3540;53.242;10.408;2022-10-16T04:44:33;11.60;99.90
7000;DHT22;3540;53.242;10.408;2022-10-16T04:46:59;11.60;99.90
7000;DHT22;3540;53.242;10.408;2022-10-16T04:49:25;11.70;99.90
7000;DHT22;3540;53.242;10.408;2022-10-16T04:51:50;11.80;99.90
7000;DHT22;3540;53.242;10.408;2022-10-16T04:54:16;11.90;99.90
7000;DHT22;3540;53.242;10.408;2022-10-16T04:56:41;12.00;99.90
7000;DHT22;3540;53.242;10.408;2022-10-16T04:59:16;12.10;99.90
7000;DHT22;3540;53.242;10.408;2022-10-16T05:01:42;12.20;99.90
7000;DHT22;3540;53.242;10.408;2022-10-16T05:04:08;12.20;99.90
7000;DHT22;3540;53.242;10.408;2022-10-16T05:06:34;12.20;99.90
7000;DHT22;3540;53.242;10.408;2022-10-16T05:08:59;12.20;99.90
7000;DHT22;3540;53.242;10.408;2022-10-16T05:11:25;12.30;99.90
7000;DHT22;3540;53.242;10.408;2022-10-16T05:13:50;12.30;99.90
7000;DHT22;3540;53.242;10.408;2022-10-16T05:16:16;12.30;99.90
7000;DHT22;3540;53.242;10.408;2022-10-16T05:18:41;12.30;99.90
7000;DHT22;3540;53.242;10.408;2022-10-16T05:21:07;12.30;99.90
7000;DHT22;3540;53.242;10.408;2022-10-16T05:23:33;12.30;99.90
7000;DHT22;3540;53.242;10.408;2022-10-16T05:25:59;12.30;99.90
7000;DHT22;3540;53.242;10.408;2022-10-16T05:28:29;12.20;99.90
7000;DHT22;3540;53.242;10.408;2022-10-16T05:30:56;12.20;99.90
7000;DHT22;3540;53.242;10.408;2022-10-16T05:33:25;12.20;99.90
7000;DHT22;3540;53.242;10.408;2022-10-16T05:35:51;12.20;99.90
7000;DHT22;3540;53.242;10.408;2022-10-16T05:38:18;12.10;99.90
7000;DHT22;3540;53.242;10.408;2022-10-16T05:40:50;12.10;99.90
7000;DHT22;3540;53.242;10.408;2022-10-16T05:43:16;12.10;99.90
7000;DHT22;3540;53.242;10.408;2022-10-16T05:45:42;12.10;99.90
7000;DHT22;3540;53.242;10.408;2022-10-16T05:48:08;12.10;99.90
7000;DHT22;3540;53.242;10.408;2022-10-16T05:50:33;12.10;99.90
7000;DHT22;3540;53.242;10.408;2022-10-16T05:52:59;12.10;99.90
7000;DHT22;3540;53.242;10.408;2022-10-16T05:55:25;12.10;99.90
7000;DHT22;3540;53.242;10.408;2022-10-16T05:57:53;12.10;99.90
7000;DHT22;3540;53.242;10.408;2022-10-16T06:00:19;12.10;99.90
7000;DHT22;3540;53.242;10.408;2022-10-16T06:02:44;12.10;99.90
7000;DHT22;3540;53.242;10.408;2022-10-16T06:05:10;12.10;99.90
7000;DHT22;3540;53.242;10.408;2022-10-16T06:07:35;12.10;99.90
7000;DHT22;3540;53.242;10.408;2022-10-16T06:10:02;12.10;99.90
7000;DHT22;3540;53.242;10.408;2022-10-16T06:12:28;12.10;99.90
7000;DHT22;3540;53.242;10.408;2022-10-16T06:14:53;12.10;99.90
7000;DHT22;3540;53.242;10.408;2022-10-16T06:17:19;12.10;99.90
7000;DHT22;3540;53.242;10.408;2022-10-16T06:19:45;12.10;99.90
7000;DHT22;3540;53.242;10.408;2022-10-16T06:22:10;12.10;99.90
7000;DHT22;3540;53.242;10.408;2022-10-16T06:24:36;12.10;99.90
7000;DHT22;3540;53.242;10.408;2022-10-16T06:27:03;12.10;99.90
7000;DHT22;3540;53.242;10.408;2022-10-16T06:29:28;12.10;99.90
7000;DHT22;3540;53.242;10.408;2022-10-16T06:31:54;12.10;99.90
7000;DHT22;3540;53.242;10.408;2022-10-16T06:34:20;12.10;99.90
7000;DHT22;3540;53.242;10.408;2022-10-16T06:36:45;12.10;99.90
7000;DHT22;3540;53.242;10.408;2022-10-16T06:39:11;12.10;99.90
7000;DHT22;3540;53.242;10.408;2022-10-16T06:41:36;12.10;99.90
7000;DHT22;3540;53.242;10.408;2022-10-16T06:44:05;12.10;99.90
7000;DHT22;3540;53.242;10.408;2022-10-16T06:46:33;12.10;99.90
7000;DHT22;3540;53.242;10.408;2022-10-16T06:48:59;12.20;99.90
7000;DHT22;3540;53.242;10.408;2022-10-16T06:51:25;12.20;99.90
7000;DHT22;3540;53.242;10.408;2022-10-16T06:53:53;12.20;99.90
7000;DHT22;3540;53.242;10.408;2022-10-16T06:56:22;12.20;99.90
7000;DHT22;3540;53.242;10.408;2022-10-16T06:58:48;12.20;99.90
7000;DHT22;3540;53.242;10.408;2022-10-16T07:01:15;12.20;99.90
7000;DHT22;3540;53.242;10.408;2022-10-16T07:03:42;12.10;99.90
7000;DHT22;3540;53.242;10.408;2022-10-16T07:06:11;12.10;99.90
7000;DHT22;3540;53.242;10.408;2022-10-16T07:08:39;12.10;99.90
7000;DHT22;3540;53.242;10.408;2022-10-16T07:11:08;12.10;99.90
7000;DHT22;3540;53.242;10.408;2022-10-16T07:13:37;12.00;99.90
7000;DHT22;3540;53.242;10.408;2022-10-16T07:18:32;12.10;99.90
7000;DHT22;3540;53.242;10.408;2022-10-16T07:21:17;12.10;99.90
7000;DHT22;3540;53.242;10.408;2022-10-16T07:23:45;12.20;99.90
7000;DHT22;3540;53.242;10.408;2022-10-16T07:26:11;12.20;99.90
7000;DHT22;3540;53.242;10.408;2022-10-16T07:28:37;12.30;99.90
7000;DHT22;3540;53.242;10.408;2022-10-16T07:31:07;12.40;99.90
7000;DHT22;3540;53.242;10.408;2022-10-16T07:33:34;12.50;99.90
7000;DHT22;3540;53.242;10.408;2022-10-16T07:36:00;12.60;99.90
7000;DHT22;3540;53.242;10.408;2022-10-16T07:38:25;12.70;99.90
7000;DHT22;3540;53.242;10.408;2022-10-16T07:43:24;12.80;99.90
7000;DHT22;3540;53.242;10.408;2022-10-16T07:45:50;12.90;99.90
7000;DHT22;3540;53.242;10.408;2022-10-16T07:48:17;13.10;99.90
7000;DHT22;3540;53.242;10.408;2022-10-16T07:50:43;13.30;99.90
7000;DHT22;3540;53.242;10.408;2022-10-16T07:53:10;13.40;99.90
7000;DHT22;3540;53.242;10.408;2022-10-16T07:55:35;13.60;99.90
7000;DHT22;3540;53.242;10.408;2022-10-16T07:58:01;13.80;99.90
7000;DHT22;3540;53.242;10.408;2022-10-16T08:00:26;13.90;99.90
7000;DHT22;3540;53.242;10.408;2022-10-16T08:02:52;14.00;99.90
7000;DHT22;3540;53.242;10.408;2022-10-16T08:05:18;14.20;99.90
7000;DHT22;3540;53.242;10.408;2022-10-16T08:07:48;14.30;99.90
7000;DHT22;3540;53.242;10.408;2022-10-16T08:10:18;14.50;99.90
7000;DHT22;3540;53.242;10.408;2022-10-16T08:12:44;14.70;99.90
7000;DHT22;3540;53.242;10.408;2022-10-16T08:15:10;14.90;99.90
7000;DHT22;3540;53.242;10.408;2022-10-16T08:17:35;15.00;99.90
7000;DHT22;3540;53.242;10.408;2022-10-16T08:20:01;15.10;99.90
7000;DHT22;3540;53.242;10.408;2022-10-16T08:22:27;15.20;99.90
7000;DHT22;3540;53.242;10.408;2022-10-16T08:24:54;15.30;99.90
7000;DHT22;3540;53.242;10.408;2022-10-16T08:27:19;15.20;99.90
7000;DHT22;3540;53.242;10.408;2022-10-16T08:29:45;15.20;99.90
7000;DHT22;3540;53.242;10.408;2022-10-16T08:32:10;15.10;99.90
7000;DHT22;3540;53.242;10.408;2022-10-16T08:34:36;15.10;99.90
7000;DHT22;3540;53.242;10.408;2022-10-16T08:37:02;15.10;99.90
7000;DHT22;3540;53.242;10.408;2022-10-16T08:39:27;15.20;99.90
7000;DHT22;3540;53.242;10.408;2022-10-16T08:44:58;15.50;99.90
7000;DHT22;3540;53.242;10.408;2022-10-16T08:50:09;15.70;99.90
7000;DHT22;3540;53.242;10.408;2022-10-16T08:52:39;15.60;99.90
7000;DHT22;3540;53.242;10.408;2022-10-16T08:55:05;15.60;99.90
7000;DHT22;3540;53.242;10.408;2022-10-16T08:57:32;15.70;99.90
7000;DHT22;3540;53.242;10.408;2022-10-16T09:00:09;15.80;99.90
7000;DHT22;3540;53.242;10.408;2022-10-16T09:03:04;15.70;99.90
7000;DHT22;3540;53.242;10.408;2022-10-16T09:06:03;15.80;99.90
7000;DHT22;3540;53.242;10.408;2022-10-16T09:08:55;15.90;99.90
7000;DHT22;3540;53.242;10.408;2022-10-16T09:16:46;16.10;99.90
7000;DHT22;3540;53.242;10.408;2022-10-16T09:19:38;16.20;99.90
7000;DHT22;3540;53.242;10.408;2022-10-16T09:22:15;16.30;99.90
7000;DHT22;3540;53.242;10.408;2022-10-16T09:24:40;16.50;99.90
7000;DHT22;3540;53.242;10.408;2022-10-16T09:27:14;16.50;99.90
7000;DHT22;3540;53.242;10.408;2022-10-16T09:29:40;16.50;99.90
7000;DHT22;3540;53.242;10.408;2022-10-16T09:32:14;16.60;99.90
7000;DHT22;3540;53.242;10.408;2022-10-16T09:34:45;16.60;99.90
7000;DHT22;3540;53.242;10.408;2022-10-16T09:37:14;16.70;99.90
7000;DHT22;3540;53.242;10.408;2022-10-16T09:42:22;16.90;99.90
7000;DHT22;3540;53.242;10.408;2022-10-16T09:44:49;17.00;99.90
7000;DHT22;3540;53.242;10.408;2022-10-16T09:47:19;17.10;99.90
7000;DHT22;3540;53.242;10.408;2022-10-16T09:52:28;17.10;99.90
7000;DHT22;3540;53.242;10.408;2022-10-16T09:54:57;17.20;99.90
7000;DHT22;3540;53.242;10.408;2022-10-16T09:57:24;17.20;99.90
7000;DHT22;3540;53.242;10.408;2022-10-16T09:59:52;17.30;99.90
7000;DHT22;3540;53.242;10.408;2022-10-16T10:02:31;17.30;99.90
7000;DHT22;3540;53.242;10.408;2022-10-16T10:04:59;17.30;99.90
7000;DHT22;3540;53.242;10.408;2022-10-16T10:07:27;17.40;99.90
7000;DHT22;3540;53.242;10.408;2022-10-16T10:09:54;17.50;99.90
7000;DHT22;3540;53.242;10.408;2022-10-16T10:12:27;17.50;99.90
7000;DHT22;3540;53.242;10.408;2022-10-16T10:14:55;17.60;99.90
7000;DHT22;3540;53.242;10.408;2022-10-16T10:17:23;17.70;99.90
7000;DHT22;3540;53.242;10.408;2022-10-16T10:22:39;17.80;99.90
7000;DHT22;3540;53.242;10.408;2022-10-16T10:46:57;18.40;99.90
7000;DHT22;3540;53.242;10.408;2022-10-16T10:49:36;18.50;99.90
7000;DHT22;3540;53.242;10.408;2022-10-16T10:54:55;18.20;99.90
7000;DHT22;3540;53.242;10.408;2022-10-16T10:57:29;18.40;99.90
7000;DHT22;3540;53.242;10.408;2022-10-16T11:00:19;18.60;99.90
7000;DHT22;3540;53.242;10.408;2022-10-16T11:03:03;18.60;99.90
7000;DHT22;3540;53.242;10.408;2022-10-16T11:05:44;18.50;99.90
7000;DHT22;3540;53.242;10.408;2022-10-16T11:08:13;18.60;99.90
7000;DHT22;3540;53.242;10.408;2022-10-16T11:10:58;18.80;99.90
7000;DHT22;3540;53.242;10.408;2022-10-16T11:13:49;19.10;99.90
7000;DHT22;3540;53.242;10.408;2022-10-16T11:16:26;19.20;99.90
7000;DHT22;3540;53.242;10.408;2022-10-16T11:21:52;18.90;99.90
7000;DHT22;3540;53.242;10.408;2022-10-16T11:26:56;18.90;99.90
7000;DHT22;3540;53.242;10.408;2022-10-16T11:29:29;18.90;99.90
7000;DHT22;3540;53.242;10.408;2022-10-16T11:32:19;19.10;99.90
7000;DHT22;3540;53.242;10.408;2022-10-16T11:34:57;19.10;99.90
7000;DHT22;3540;53.242;10.408;2022-10-16T11:37:32;19.00;99.90
7000;DHT22;3540;53.242;10.408;2022-10-16T11:40:24;19.10;99.90
7000;DHT22;3540;53.242;10.408;2022-10-16T11:42:57;19.20;99.90
7000;DHT22;3540;53.242;10.408;2022-10-16T11:45:42;19.30;99.90
7000;DHT22;3540;53.242;10.408;2022-10-16T11:48:27;19.00;99.90
7000;DHT22;3540;53.242;10.408;2022-10-16T11:51:06;19.00;99.90
7000;DHT22;3540;53.242;10.408;2022-10-16T11:56:16;18.90;99.90
7000;DHT22;3540;53.242;10.408;2022-10-16T11:59:05;18.90;99.90
7000;DHT22;3540;53.242;10.408;2022-10-16T12:01:48;18.90;99.90
7000;DHT22;3540;53.242;10.408;2022-10-16T12:04:34;18.90;99.90
7000;DHT22;3540;53.242;10.408;2022-10-16T12:07:08;19.00;99.90
7000;DHT22;3540;53.242;10.408;2022-10-16T12:09:37;18.90;99.90
7000;DHT22;3540;53.242;10.408;2022-10-16T12:12:04;18.90;99.90
7000;DHT22;3540;53.242;10.408;2022-10-16T12:14:37;19.00;99.90
7000;DHT22;3540;53.242;10.408;2022-10-16T12:17:34;19.00;99.90
7000;DHT22;3540;53.242;10.408;2022-10-16T12:20:20;18.70;99.90
7000;DHT22;3540;53.242;10.408;2022-10-16T12:22:50;18.60;99.90
7000;DHT22;3540;53.242;10.408;2022-10-16T12:25:36;18.80;99.90
7000;DHT22;3540;53.242;10.408;2022-10-16T12:28:22;18.70;99.90
7000;DHT22;3540;53.242;10.408;2022-10-16T12:31:14;19.00;99.90
7000;DHT22;3540;53.242;10.408;2022-10-16T12:33:51;19.00;99.90
7000;DHT22;3540;53.242;10.408;2022-10-16T12:36:32;19.00;99.90
7000;DHT22;3540;53.242;10.408;2022-10-16T12:38:59;19.30;99.90
7000;DHT22;3540;53.242;10.408;2022-10-16T12:41:33;19.40;99.90
7000;DHT22;3540;53.242;10.408;2022-10-16T12:44:00;19.20;99.90
7000;DHT22;3540;53.242;10.408;2022-10-16T12:49:50;18.80;99.90
7000;DHT22;3540;53.242;10.408;2022-10-16T12:51:51;18.60;99.90
7000;DHT22;3540;53.242;10.408;2022-10-16T12:54:22;18.60;99.90
7000;DHT22;3540;53.242;10.408;2022-10-16T12:57:12;18.70;99.90
7000;DHT22;3540;53.242;10.408;2022-10-16T13:00:03;19.00;99.90
7000;DHT22;3540;53.242;10.408;2022-10-16T13:08:26;19.50;99.90
7000;DHT22;3540;53.242;10.408;2022-10-16T13:14:51;19.70;99.90
7000;DHT22;3540;53.242;10.408;2022-10-16T13:20:55;19.60;99.90
7000;DHT22;3540;53.242;10.408;2022-10-16T13:23:30;19.50;99.90
7000;DHT22;3540;53.242;10.408;2022-10-16T13:26:26;19.40;99.90
7000;DHT22;3540;53.242;10.408;2022-10-16T13:28:58;19.70;99.90
7000;DHT22;3540;53.242;10.408;2022-10-16T13:31:25;19.80;99.90
7000;DHT22;3540;53.242;10.408;2022-10-16T13:33:55;19.80;99.90
7000;DHT22;3540;53.242;10.408;2022-10-16T13:36:29;19.80;99.90
7000;DHT22;3540;53.242;10.408;2022-10-16T13:39:23;20.00;99.90
7000;DHT22;3540;53.242;10.408;2022-10-16T13:44:33;19.70;99.90
7000;DHT22;3540;53.242;10.408;2022-10-16T13:47:02;19.80;99.90
7000;DHT22;3540;53.242;10.408;2022-10-16T13:49:28;19.70;99.90
7000;DHT22;3540;53.242;10.408;2022-10-16T13:51:55;19.90;99.90
7000;DHT22;3540;53.242;10.408;2022-10-16T13:54:21;19.90;99.90
7000;DHT22;3540;53.242;10.408;2022-10-16T13:56:47;19.70;99.90
7000;DHT22;3540;53.242;10.408;2022-10-16T13:59:27;19.70;99.90
7000;DHT22;3540;53.242;10.408;2022-10-16T14:01:58;19.80;99.90
7000;DHT22;3540;53.242;10.408;2022-10-16T14:04:25;19.80;99.90
7000;DHT22;3540;53.242;10.408;2022-10-16T14:06:52;20.00;99.90
7000;DHT22;3540;53.242;10.408;2022-10-16T14:09:28;19.90;99.90
7000;DHT22;3540;53.242;10.408;2022-10-16T14:12:03;19.90;99.90
7000;DHT22;3540;53.242;10.408;2022-10-16T14:14:41;19.90;99.90
7000;DHT22;3540;53.242;10.408;2022-10-16T14:17:18;19.80;99.90
7000;DHT22;3540;53.242;10.408;2022-10-16T14:19:49;19.70;99.90
7000;DHT22;3540;53.242;10.408;2022-10-16T14:28:18;19.40;99.90
7000;DHT22;3540;53.242;10.408;2022-10-16T14:31:00;19.30;99.90
7000;DHT22;3540;53.242;10.408;2022-10-16T14:36:14;19.30;99.90
7000;DHT22;3540;53.242;10.408;2022-10-16T14:41:29;19.10;99.90
7000;DHT22;3540;53.242;10.408;2022-10-16T14:44:01;19.10;99.90
7000;DHT22;3540;53.242;10.408;2022-10-16T14:46:39;19.10;99.90
7000;DHT22;3540;53.242;10.408;2022-10-16T14:51:34;19.00;99.90
7000;DHT22;3540;53.242;10.408;2022-10-16T14:54:00;18.70;99.90
7000;DHT22;3540;53.242;10.408;2022-10-16T14:56:34;18.70;99.90
7000;DHT22;3540;53.242;10.408;2022-10-16T14:59:01;18.70;99.90
7000;DHT22;3540;53.242;10.408;2022-10-16T15:01:27;18.70;99.90
7000;DHT22;3540;53.242;10.408;2022-10-16T15:03:53;18.70;99.90
7000;DHT22;3540;53.242;10.408;2022-10-16T15:06:20;18.70;99.90
7000;DHT22;3540;53.242;10.408;2022-10-16T15:08:46;18.60;99.90
7000;DHT22;3540;53.242;10.408;2022-10-16T15:11:18;18.60;99.90
7000;DHT22;3540;53.242;10.408;2022-10-16T15:13:46;18.60;99.90
7000;DHT22;3540;53.242;10.408;2022-10-16T15:16:15;18.50;99.90
7000;DHT22;3540;53.242;10.408;2022-10-16T15:18:41;18.40;99.90
7000;DHT22;3540;53.242;10.408;2022-10-16T15:21:08;18.40;99.90
7000;DHT22;3540;53.242;10.408;2022-10-16T15:23:34;18.30;99.90
7000;DHT22;3540;53.242;10.408;2022-10-16T15:25:59;18.20;99.90
7000;DHT22;3540;53.242;10.408;2022-10-16T15:28:25;18.20;99.90
7000;DHT22;3540;53.242;10.408;2022-10-16T15:30:53;18.10;99.90
7000;DHT22;3540;53.242;10.408;2022-10-16T15:33:24;18.00;99.90
7000;DHT22;3540;53.242;10.408;2022-10-16T15:35:53;17.90;99.90
7000;DHT22;3540;53.242;10.408;2022-10-16T15:38:20;17.90;99.90
7000;DHT22;3540;53.242;10.408;2022-10-16T15:40:47;17.90;99.90
7000;DHT22;3540;53.242;10.408;2022-10-16T15:43:13;17.80;99.90
7000;DHT22;3540;53.242;10.408;2022-10-16T15:45:38;17.70;99.90
7000;DHT22;3540;53.242;10.408;2022-10-16T15:48:05;17.70;99.90
7000;DHT22;3540;53.242;10.408;2022-10-16T15:50:31;17.60;99.90
7000;DHT22;3540;53.242;10.408;2022-10-16T15:52:57;17.50;99.90
7000;DHT22;3540;53.242;10.408;2022-10-16T15:55:23;17.50;99.90
7000;DHT22;3540;53.242;10.408;2022-10-16T15:57:49;17.40;99.90
7000;DHT22;3540;53.242;10.408;2022-10-16T16:00:17;17.30;99.90
7000;DHT22;3540;53.242;10.408;2022-10-16T16:02:43;17.10;99.90
7000;DHT22;3540;53.242;10.408;2022-10-16T16:05:10;17.00;99.90
7000;DHT22;3540;53.242;10.408;2022-10-16T16:07:37;16.90;99.90
7000;DHT22;3540;53.242;10.408;2022-10-16T16:10:05;16.80;99.90
7000;DHT22;3540;53.242;10.408;2022-10-16T16:12:32;16.70;99.90
7000;DHT22;3540;53.242;10.408;2022-10-16T16:14:57;16.60;99.90
7000;DHT22;3540;53.242;10.408;2022-10-16T16:17:23;16.50;99.90
7000;DHT22;3540;53.242;10.408;2022-10-16T16:19:49;16.50;99.90
7000;DHT22;3540;53.242;10.408;2022-10-16T16:22:15;16.40;99.90
7000;DHT22;3540;53.242;10.408;2022-10-16T16:24:41;16.30;99.90
7000;DHT22;3540;53.242;10.408;2022-10-16T16:27:06;16.20;99.90
7000;DHT22;3540;53.242;10.408;2022-10-16T16:29:32;16.10;99.90
7000;DHT22;3540;53.242;10.408;2022-10-16T16:31:59;16.10;99.90
7000;DHT22;3540;53.242;10.408;2022-10-16T16:34:26;15.90;99.90
7000;DHT22;3540;53.242;10.408;2022-10-16T16:36:51;15.80;99.90
7000;DHT22;3540;53.242;10.408;2022-10-16T16:39:17;15.70;99.90
7000;DHT22;3540;53.242;10.408;2022-10-16T16:41:43;15.60;99.90
7000;DHT22;3540;53.242;10.408;2022-10-16T16:44:11;15.50;99.90
7000;DHT22;3540;53.242;10.408;2022-10-16T16:46:38;15.40;99.90
7000;DHT22;3540;53.242;10.408;2022-10-16T16:49:05;15.30;99.90
7000;DHT22;3540;53.242;10.408;2022-10-16T16:51:31;15.20;99.90
7000;DHT22;3540;53.242;10.408;2022-10-16T16:53:57;15.20;99.90
7000;DHT22;3540;53.242;10.408;2022-10-16T16:56:24;15.10;99.90
7000;DHT22;3540;53.242;10.408;2022-10-16T16:58:52;15.00;99.90
7000;DHT22;3540;53.242;10.408;2022-10-16T17:01:19;14.90;99.90
7000;DHT22;3540;53.242;10.408;2022-10-16T17:03:45;14.80;99.90
7000;DHT22;3540;53.242;10.408;2022-10-16T17:06:12;14.80;99.90
7000;DHT22;3540;53.242;10.408;2022-10-16T17:08:38;14.70;99.90
7000;DHT22;3540;53.242;10.408;2022-10-16T17:11:05;14.60;99.90
7000;DHT22;3540;53.242;10.408;2022-10-16T17:13:33;14.50;99.90
7000;DHT22;3540;53.242;10.408;2022-10-16T17:16:04;14.40;99.90
7000;DHT22;3540;53.242;10.408;2022-10-16T17:18:30;14.30;99.90
7000;DHT22;3540;53.242;10.408;2022-10-16T17:20:59;14.10;99.90
7000;DHT22;3540;53.242;10.408;2022-10-16T17:23:25;13.90;99.90
7000;DHT22;3540;53.242;10.408;2022-10-16T17:25:51;13.80;99.90
7000;DHT22;3540;53.242;10.408;2022-10-16T17:28:16;13.70;99.90
7000;DHT22;3540;53.242;10.408;2022-10-16T17:30:43;13.50;99.90
7000;DHT22;3540;53.242;10.408;2022-10-16T17:33:09;13.40;99.90
7000;DHT22;3540;53.242;10.408;2022-10-16T17:35:40;13.30;99.90
7000;DHT22;3540;53.242;10.408;2022-10-16T17:38:06;13.20;99.90
7000;DHT22;3540;53.242;10.408;2022-10-16T17:40:32;13.10;99.90
7000;DHT22;3540;53.242;10.408;2022-10-16T17:42:58;13.00;99.90
7000;DHT22;3540;53.242;10.408;2022-10-16T17:45:24;12.90;99.90
7000;DHT22;3540;53.242;10.408;2022-10-16T17:47:50;12.90;99.90